createdAt,value
2023-02-04T00:00:56.952Z,6.96
2023-02-04T00:01:56.996Z,6.96
2023-02-04T00:02:57.085Z,6.87
2023-02-04T00:03:56.860Z,6.95
2023-02-04T00:04:56.832Z,7.02
2023-02-04T00:05:56.744Z,7.06
2023-02-04T00:06:56.758Z,7
2023-02-04T00:07:56.766Z,7.03
2023-02-04T00:08:56.703Z,7.05
2023-02-04T00:09:56.670Z,7
2023-02-04T00:10:56.632Z,7.05
2023-02-04T00:11:56.601Z,6.96
2023-02-04T00:12:56.556Z,6.96
2023-02-04T00:13:56.522Z,6.93
2023-02-04T00:14:56.494Z,7.07
2023-02-04T00:15:56.608Z,6.95
2023-02-04T00:16:56.428Z,6.96
2023-02-04T00:17:56.468Z,6.95
2023-02-04T00:18:56.362Z,6.96
2023-02-04T00:19:56.344Z,7.06
2023-02-04T00:20:56.303Z,7.05
2023-02-04T00:21:56.340Z,6.96
2023-02-04T00:22:56.240Z,6.97
2023-02-04T00:23:58.580Z,6.89
2023-02-04T00:24:56.174Z,6.89
2023-02-04T00:25:56.149Z,6.92
2023-02-04T00:26:56.099Z,6.85
2023-02-04T00:27:56.276Z,6.96
2023-02-04T00:28:56.088Z,6.85
2023-02-04T00:29:56.006Z,6.87
2023-02-04T00:30:55.969Z,6.88
2023-02-04T00:31:56.437Z,6.87
2023-02-04T00:32:55.664Z,6.89
2023-02-04T00:33:56.039Z,6.93
2023-02-04T00:34:55.849Z,6.85
2023-02-04T00:35:55.813Z,6.84
2023-02-04T00:36:55.804Z,6.87
2023-02-04T00:37:55.846Z,6.82
2023-02-04T00:38:55.712Z,6.85
2023-02-04T00:39:55.689Z,6.87
2023-02-04T00:40:55.649Z,6.88
2023-02-04T00:41:55.620Z,6.87
2023-02-04T00:42:55.596Z,6.89
2023-02-04T00:43:55.546Z,6.88
2023-02-04T00:44:55.535Z,6.87
2023-02-04T00:45:55.608Z,6.82
2023-02-04T00:46:55.218Z,6.87
2023-02-04T00:47:55.417Z,6.87
2023-02-04T00:48:55.381Z,6.84
2023-02-04T00:49:55.424Z,6.75
2023-02-04T00:50:55.326Z,6.82
2023-02-04T00:51:55.286Z,6.84
2023-02-04T00:52:55.259Z,6.85
2023-02-04T00:53:55.226Z,6.82
2023-02-04T00:54:55.202Z,6.78
2023-02-04T00:55:55.170Z,6.84
2023-02-04T00:56:55.127Z,6.79
2023-02-04T00:57:55.099Z,6.75
2023-02-04T00:58:55.057Z,6.75
2023-02-04T00:59:55.026Z,6.77
2023-02-04T01:00:55.236Z,6.79
2023-02-04T01:01:54.964Z,6.81
2023-02-04T01:02:55.101Z,6.79
2023-02-04T01:03:54.900Z,6.78
2023-02-04T01:04:54.863Z,6.81
2023-02-04T01:05:54.916Z,6.87
2023-02-04T01:06:54.801Z,6.81
2023-02-04T01:07:54.790Z,6.84
2023-02-04T01:08:54.749Z,6.79
2023-02-04T01:09:54.704Z,6.81
2023-02-04T01:10:54.670Z,6.78
2023-02-04T01:11:54.639Z,6.82
2023-02-04T01:12:54.813Z,6.87
2023-02-04T01:13:54.567Z,6.87
2023-02-04T01:14:54.570Z,6.89
2023-02-04T01:15:54.520Z,6.81
2023-02-04T01:16:54.678Z,6.79
2023-02-04T01:17:54.468Z,6.85
2023-02-04T01:18:54.435Z,6.89
2023-02-04T01:19:54.386Z,6.89
2023-02-04T01:20:54.343Z,6.89
2023-02-04T01:21:54.379Z,6.78
2023-02-04T01:22:54.307Z,6.82
2023-02-04T01:23:54.251Z,6.79
2023-02-04T01:24:54.246Z,6.84
2023-02-04T01:25:54.193Z,6.85
2023-02-04T01:26:54.151Z,6.93
2023-02-04T01:27:54.274Z,6.75
2023-02-04T01:28:54.092Z,6.82
2023-02-04T01:29:54.061Z,6.93
2023-02-04T01:30:54.177Z,6.96
2023-02-04T01:31:54.289Z,6.88
2023-02-04T01:32:53.974Z,6.88
2023-02-04T01:33:53.919Z,6.88
2023-02-04T01:34:54.915Z,6.93
2023-02-04T01:35:53.873Z,6.88
2023-02-04T01:36:53.840Z,6.85
2023-02-04T01:37:53.876Z,6.85
2023-02-04T01:38:53.765Z,6.92
2023-02-04T01:39:53.723Z,6.93
2023-02-04T01:40:53.694Z,6.85
2023-02-04T01:41:53.661Z,6.93
2023-02-04T01:42:53.625Z,6.96
2023-02-04T01:43:53.586Z,6.89
2023-02-04T01:44:53.578Z,6.85
2023-02-04T01:45:53.736Z,6.93
2023-02-04T01:46:53.254Z,6.87
2023-02-04T01:47:53.489Z,6.96
2023-02-04T01:48:53.447Z,6.85
2023-02-04T01:49:53.417Z,6.84
2023-02-04T01:50:53.383Z,6.89
2023-02-04T01:51:53.330Z,6.88
2023-02-04T01:52:53.303Z,6.87
2023-02-04T01:53:53.424Z,6.93
2023-02-04T01:54:53.241Z,6.89
2023-02-04T01:55:53.207Z,6.89
2023-02-04T01:56:53.166Z,6.89
2023-02-04T01:57:53.139Z,6.95
2023-02-04T01:58:53.098Z,6.89
2023-02-04T01:59:53.094Z,6.88
2023-02-04T02:00:53.158Z,6.89
2023-02-04T02:01:53.066Z,6.92
2023-02-04T02:02:52.970Z,6.85
2023-02-04T02:03:52.939Z,6.84
2023-02-04T02:04:52.912Z,6.82
2023-02-04T02:05:52.891Z,6.89
2023-02-04T02:06:52.856Z,6.87
2023-02-04T02:07:52.825Z,6.88
2023-02-04T02:08:52.815Z,6.85
2023-02-04T02:09:52.899Z,6.85
2023-02-04T02:10:52.713Z,6.89
2023-02-04T02:11:52.682Z,6.93
2023-02-04T02:12:52.676Z,6.95
2023-02-04T02:13:52.623Z,6.92
2023-02-04T02:14:52.586Z,6.95
2023-02-04T02:15:52.574Z,6.95
2023-02-04T02:16:53.109Z,6.92
2023-02-04T02:17:52.510Z,6.95
2023-02-04T02:18:52.462Z,6.97
2023-02-04T02:19:52.429Z,6.89
2023-02-04T02:20:52.386Z,6.93
2023-02-04T02:21:52.393Z,6.96
2023-02-04T02:22:52.321Z,6.96
2023-02-04T02:23:52.053Z,6.92
2023-02-04T02:24:52.257Z,6.92
2023-02-04T02:25:52.320Z,6.96
2023-02-04T02:26:52.204Z,6.93
2023-02-04T02:27:52.262Z,6.93
2023-02-04T02:28:52.165Z,6.92
2023-02-04T02:29:52.094Z,6.95
2023-02-04T02:30:52.534Z,6.97
2023-02-04T02:31:52.503Z,6.95
2023-02-04T02:32:51.998Z,6.95
2023-02-04T02:33:51.981Z,6.92
2023-02-04T02:34:51.925Z,6.95
2023-02-04T02:35:51.915Z,6.85
2023-02-04T02:36:51.863Z,6.92
2023-02-04T02:37:51.842Z,6.96
2023-02-04T02:38:51.811Z,6.93
2023-02-04T02:39:51.783Z,6.87
2023-02-04T02:40:51.751Z,6.95
2023-02-04T02:41:51.779Z,6.93
2023-02-04T02:42:51.677Z,6.95
2023-02-04T02:43:51.641Z,6.96
2023-02-04T02:44:51.608Z,6.87
2023-02-04T02:45:51.864Z,6.87
2023-02-04T02:46:51.564Z,6.92
2023-02-04T02:47:51.556Z,6.85
2023-02-04T02:48:51.476Z,6.92
2023-02-04T02:49:51.441Z,6.85
2023-02-04T02:50:51.402Z,6.88
2023-02-04T02:51:51.383Z,6.96
2023-02-04T02:52:51.350Z,6.82
2023-02-04T02:53:51.306Z,6.85
2023-02-04T02:54:51.290Z,6.85
2023-02-04T02:55:51.253Z,6.84
2023-02-04T02:56:51.219Z,6.81
2023-02-04T02:57:51.264Z,6.81
2023-02-04T02:58:51.154Z,6.81
2023-02-04T02:59:51.120Z,6.82
2023-02-04T03:00:51.081Z,6.81
2023-02-04T03:01:51.068Z,6.89
2023-02-04T03:02:51.161Z,6.81
2023-02-04T03:03:51.026Z,6.79
2023-02-04T03:04:50.953Z,6.85
2023-02-04T03:05:50.921Z,6.82
2023-02-04T03:06:50.878Z,6.85
2023-02-04T03:07:50.863Z,6.85
2023-02-04T03:08:50.810Z,6.84
2023-02-04T03:09:50.787Z,6.79
2023-02-04T03:10:50.537Z,6.82
2023-02-04T03:11:50.761Z,6.84
2023-02-04T03:12:50.683Z,6.82
2023-02-04T03:13:50.734Z,6.81
2023-02-04T03:14:50.629Z,6.84
2023-02-04T03:15:50.752Z,6.82
2023-02-04T03:16:50.555Z,6.77
2023-02-04T03:17:50.516Z,6.84
2023-02-04T03:18:50.487Z,6.88
2023-02-04T03:19:50.454Z,6.82
2023-02-04T03:20:50.425Z,6.85
2023-02-04T03:21:50.396Z,6.85
2023-02-04T03:22:50.390Z,6.84
2023-02-04T03:23:50.321Z,6.77
2023-02-04T03:24:50.295Z,6.85
2023-02-04T03:25:50.023Z,6.82
2023-02-04T03:26:50.313Z,6.79
2023-02-04T03:27:50.351Z,6.81
2023-02-04T03:28:50.173Z,6.82
2023-02-04T03:29:50.221Z,6.88
2023-02-04T03:30:50.478Z,6.82
2023-02-04T03:31:50.566Z,6.87
2023-02-04T03:32:50.031Z,6.84
2023-02-04T03:33:50.009Z,6.79
2023-02-04T03:34:49.975Z,6.77
2023-02-04T03:35:49.939Z,6.85
2023-02-04T03:36:49.947Z,6.85
2023-02-04T03:37:49.882Z,6.78
2023-02-04T03:38:49.851Z,6.84
2023-02-04T03:39:49.804Z,6.78
2023-02-04T03:40:49.810Z,6.79
2023-02-04T03:41:49.744Z,6.78
2023-02-04T03:42:49.732Z,6.84
2023-02-04T03:43:49.687Z,6.82
2023-02-04T03:44:49.654Z,6.82
2023-02-04T03:45:50.758Z,6.75
2023-02-04T03:46:49.579Z,6.78
2023-02-04T03:47:49.548Z,6.81
2023-02-04T03:48:49.519Z,6.82
2023-02-04T03:49:49.484Z,6.79
2023-02-04T03:50:49.455Z,6.75
2023-02-04T03:51:49.427Z,6.77
2023-02-04T03:52:49.392Z,6.79
2023-02-04T03:53:49.357Z,6.81
2023-02-04T03:54:49.080Z,6.78
2023-02-04T03:55:49.286Z,6.78
2023-02-04T03:56:49.249Z,6.79
2023-02-04T03:57:49.231Z,6.77
2023-02-04T03:58:49.184Z,6.72
2023-02-04T03:59:49.159Z,6.82
2023-02-04T04:00:49.130Z,6.87
2023-02-04T04:01:49.401Z,6.81
2023-02-04T04:02:49.333Z,6.81
2023-02-04T04:03:49.040Z,6.7
2023-02-04T04:04:49.003Z,6.69
2023-02-04T04:05:48.961Z,6.7
2023-02-04T04:06:48.926Z,6.77
2023-02-04T04:07:48.898Z,6.72
2023-02-04T04:08:48.893Z,6.82
2023-02-04T04:09:48.839Z,6.69
2023-02-04T04:10:48.815Z,6.75
2023-02-04T04:11:48.866Z,6.69
2023-02-04T04:12:48.748Z,6.72
2023-02-04T04:13:48.708Z,6.78
2023-02-04T04:14:48.668Z,6.81
2023-02-04T04:15:48.738Z,6.82
2023-02-04T04:16:48.602Z,6.78
2023-02-04T04:17:48.664Z,6.81
2023-02-04T04:18:48.553Z,6.77
2023-02-04T04:19:48.502Z,6.75
2023-02-04T04:20:48.484Z,6.79
2023-02-04T04:21:48.450Z,6.77
2023-02-04T04:22:48.406Z,6.78
2023-02-04T04:23:48.392Z,6.78
2023-02-04T04:24:48.340Z,6.78
2023-02-04T04:25:48.309Z,6.75
2023-02-04T04:26:48.283Z,6.79
2023-02-04T04:27:48.468Z,6.79
2023-02-04T04:28:48.224Z,6.79
2023-02-04T04:29:48.186Z,6.82
2023-02-04T04:30:48.304Z,6.72
2023-02-04T04:31:48.293Z,6.79
2023-02-04T04:32:48.088Z,6.75
2023-02-04T04:33:48.127Z,6.72
2023-02-04T04:34:48.020Z,6.78
2023-02-04T04:35:47.983Z,6.69
2023-02-04T04:36:47.947Z,6.77
2023-02-04T04:37:47.921Z,6.69
2023-02-04T04:38:47.890Z,6.75
2023-02-04T04:39:47.854Z,6.72
2023-02-04T04:40:47.823Z,6.75
2023-02-04T04:41:47.783Z,6.72
2023-02-04T04:42:47.748Z,6.74
2023-02-04T04:43:47.718Z,6.7
2023-02-04T04:44:47.675Z,6.69
2023-02-04T04:45:47.661Z,6.72
2023-02-04T04:46:47.821Z,6.75
2023-02-04T04:47:47.576Z,6.72
2023-02-04T04:48:47.543Z,6.82
2023-02-04T04:49:47.611Z,6.77
2023-02-04T04:50:47.482Z,6.75
2023-02-04T04:51:47.447Z,6.77
2023-02-04T04:52:47.412Z,6.75
2023-02-04T04:53:47.384Z,6.79
2023-02-04T04:54:47.358Z,6.81
2023-02-04T04:55:47.323Z,6.81
2023-02-04T04:56:47.280Z,6.82
2023-02-04T04:57:47.257Z,6.81
2023-02-04T04:58:47.254Z,6.82
2023-02-04T04:59:47.196Z,6.7
2023-02-04T05:00:47.298Z,6.81
2023-02-04T05:01:47.136Z,6.79
2023-02-04T05:02:47.091Z,6.78
2023-02-04T05:03:47.085Z,6.79
2023-02-04T05:04:47.168Z,6.82
2023-02-04T05:05:47.076Z,6.75
2023-02-04T05:06:47.093Z,6.81
2023-02-04T05:07:46.700Z,6.87
2023-02-04T05:08:46.906Z,6.84
2023-02-04T05:09:46.868Z,6.84
2023-02-04T05:10:46.842Z,6.82
2023-02-04T05:11:46.808Z,6.89
2023-02-04T05:12:46.770Z,6.87
2023-02-04T05:13:46.802Z,6.87
2023-02-04T05:14:46.705Z,6.78
2023-02-04T05:15:46.679Z,6.87
2023-02-04T05:16:46.782Z,6.85
2023-02-04T05:17:46.612Z,6.78
2023-02-04T05:18:46.347Z,6.78
2023-02-04T05:19:46.588Z,6.88
2023-02-04T05:20:46.515Z,6.81
2023-02-04T05:21:46.571Z,6.81
2023-02-04T05:22:46.454Z,6.84
2023-02-04T05:23:46.419Z,6.89
2023-02-04T05:24:46.386Z,6.87
2023-02-04T05:25:46.348Z,6.81
2023-02-04T05:26:46.324Z,6.82
2023-02-04T05:27:46.395Z,6.87
2023-02-04T05:28:46.257Z,6.89
2023-02-04T05:29:46.221Z,6.87
2023-02-04T05:30:46.374Z,6.95
2023-02-04T05:31:46.321Z,6.93
2023-02-04T05:32:46.122Z,6.93
2023-02-04T05:33:46.091Z,6.84
2023-02-04T05:34:46.071Z,6.85
2023-02-04T05:35:46.029Z,6.92
2023-02-04T05:36:46.042Z,6.93
2023-02-04T05:37:46.034Z,6.85
2023-02-04T05:38:45.930Z,6.93
2023-02-04T05:39:45.889Z,6.82
2023-02-04T05:40:45.861Z,6.92
2023-02-04T05:41:45.820Z,6.89
2023-02-04T05:42:45.794Z,6.92
2023-02-04T05:43:45.780Z,6.92
2023-02-04T05:44:45.771Z,6.84
2023-02-04T05:45:45.849Z,6.88
2023-02-04T05:46:45.658Z,6.85
2023-02-04T05:47:45.689Z,6.88
2023-02-04T05:48:45.603Z,6.87
2023-02-04T05:49:45.565Z,6.89
2023-02-04T05:50:45.530Z,6.82
2023-02-04T05:51:45.518Z,6.84
2023-02-04T05:52:45.465Z,6.95
2023-02-04T05:53:45.587Z,6.89
2023-02-04T05:54:45.411Z,6.93
2023-02-04T05:55:45.365Z,6.87
2023-02-04T05:56:45.340Z,6.87
2023-02-04T05:57:45.315Z,6.88
2023-02-04T05:58:45.284Z,6.93
2023-02-04T05:59:45.244Z,6.88
2023-02-04T06:00:45.207Z,6.87
2023-02-04T06:01:45.182Z,6.88
2023-02-04T06:02:45.150Z,6.79
2023-02-04T06:03:45.165Z,6.79
2023-02-04T06:04:47.232Z,6.93
2023-02-04T06:05:45.048Z,6.92
2023-02-04T06:06:45.015Z,6.96
2023-02-04T06:07:44.987Z,6.87
2023-02-04T06:08:44.946Z,6.92
2023-02-04T06:09:44.982Z,6.88
2023-02-04T06:10:44.901Z,6.89
2023-02-04T06:11:44.859Z,6.84
2023-02-04T06:12:44.837Z,6.85
2023-02-04T06:13:44.783Z,6.89
2023-02-04T06:14:44.750Z,6.96
2023-02-04T06:15:44.729Z,6.92
2023-02-04T06:16:44.935Z,6.84
2023-02-04T06:17:44.660Z,6.81
2023-02-04T06:18:44.625Z,6.87
2023-02-04T06:19:44.611Z,6.95
2023-02-04T06:20:44.565Z,6.84
2023-02-04T06:21:44.529Z,6.88
2023-02-04T06:22:44.494Z,6.85
2023-02-04T06:23:44.460Z,6.79
2023-02-04T06:24:46.175Z,6.85
2023-02-04T06:25:44.489Z,6.87
2023-02-04T06:26:44.364Z,6.89
2023-02-04T06:27:44.245Z,6.92
2023-02-04T06:28:44.308Z,6.85
2023-02-04T06:29:44.262Z,6.88
2023-02-04T06:30:44.365Z,6.95
2023-02-04T06:31:44.487Z,6.97
2023-02-04T06:32:44.183Z,6.88
2023-02-04T06:33:44.137Z,6.88
2023-02-04T06:34:44.106Z,6.82
2023-02-04T06:35:44.069Z,6.88
2023-02-04T06:36:44.057Z,6.93
2023-02-04T06:37:44.004Z,6.88
2023-02-04T06:38:43.968Z,6.88
2023-02-04T06:39:43.692Z,6.92
2023-02-04T06:40:43.917Z,6.85
2023-02-04T06:41:43.943Z,6.89
2023-02-04T06:42:43.846Z,6.88
2023-02-04T06:43:43.828Z,6.87
2023-02-04T06:44:43.807Z,6.88
2023-02-04T06:45:43.735Z,6.97
2023-02-04T06:46:43.716Z,6.92
2023-02-04T06:47:43.677Z,6.88
2023-02-04T06:48:43.648Z,6.87
2023-02-04T06:49:43.622Z,6.92
2023-02-04T06:50:43.588Z,6.85
2023-02-04T06:51:43.546Z,6.81
2023-02-04T06:52:43.517Z,6.78
2023-02-04T06:53:43.481Z,6.88
2023-02-04T06:54:43.479Z,6.81
2023-02-04T06:55:43.450Z,6.78
2023-02-04T06:56:43.393Z,6.85
2023-02-04T06:57:43.424Z,6.82
2023-02-04T06:58:43.322Z,6.84
2023-02-04T06:59:43.283Z,6.87
2023-02-04T07:00:43.264Z,6.82
2023-02-04T07:01:43.579Z,6.87
2023-02-04T07:02:43.335Z,6.84
2023-02-04T07:03:43.163Z,6.88
2023-02-04T07:04:43.141Z,6.84
2023-02-04T07:05:43.091Z,6.84
2023-02-04T07:06:43.080Z,6.81
2023-02-04T07:07:43.034Z,6.82
2023-02-04T07:08:43.009Z,6.87
2023-02-04T07:09:42.825Z,6.87
2023-02-04T07:10:42.943Z,6.78
2023-02-04T07:11:42.904Z,6.77
2023-02-04T07:12:42.872Z,6.84
2023-02-04T07:13:42.897Z,6.78
2023-02-04T07:14:42.821Z,6.78
2023-02-04T07:15:42.892Z,6.85
2023-02-04T07:16:42.747Z,6.82
2023-02-04T07:17:42.708Z,6.87
2023-02-04T07:18:42.687Z,6.87
2023-02-04T07:19:42.639Z,6.85
2023-02-04T07:20:42.613Z,6.93
2023-02-04T07:21:42.593Z,6.89
2023-02-04T07:22:42.603Z,6.85
2023-02-04T07:23:42.507Z,6.89
2023-02-04T07:24:42.516Z,6.95
2023-02-04T07:25:42.453Z,6.92
2023-02-04T07:26:42.429Z,6.88
2023-02-04T07:27:42.403Z,6.93
2023-02-04T07:28:42.343Z,6.88
2023-02-04T07:29:42.397Z,6.85
2023-02-04T07:30:42.662Z,6.85
2023-02-04T07:31:42.603Z,6.88
2023-02-04T07:32:42.295Z,6.89
2023-02-04T07:33:42.176Z,6.93
2023-02-04T07:34:42.160Z,6.87
2023-02-04T07:35:42.120Z,6.96
2023-02-04T07:36:42.187Z,6.93
2023-02-04T07:37:42.108Z,6.97
2023-02-04T07:38:42.021Z,7.06
2023-02-04T07:39:43.644Z,7.03
2023-02-04T07:40:42.122Z,7.06
2023-02-04T07:41:41.916Z,7.07
2023-02-04T07:42:41.905Z,7.07
2023-02-04T07:43:41.852Z,7.06
2023-02-04T07:44:41.821Z,7.07
2023-02-04T07:45:41.861Z,7.07
2023-02-04T07:46:41.718Z,7.03
2023-02-04T07:47:41.718Z,7.07
2023-02-04T07:48:41.696Z,7.03
2023-02-04T07:49:41.659Z,6.96
2023-02-04T07:50:41.629Z,6.93
2023-02-04T07:51:41.602Z,7.02
2023-02-04T07:52:41.562Z,7.07
2023-02-04T07:53:41.540Z,7
2023-02-04T07:54:41.518Z,7.07
2023-02-04T07:55:41.458Z,7.11
2023-02-04T07:56:41.434Z,7.05
2023-02-04T07:57:41.422Z,7.13
2023-02-04T07:58:41.360Z,7.11
2023-02-04T07:59:41.329Z,7.1
2023-02-04T08:00:41.297Z,7.15
2023-02-04T08:01:41.523Z,7.07
2023-02-04T08:02:41.300Z,7.11
2023-02-04T08:03:44.194Z,7.24
2023-02-04T08:04:40.927Z,7.14
2023-02-04T08:05:41.148Z,7.2
2023-02-04T08:06:41.111Z,7.23
2023-02-04T08:07:40.840Z,7.28
2023-02-04T08:08:40.815Z,7.28
2023-02-04T08:09:41.016Z,7.29
2023-02-04T08:10:40.984Z,7.32
2023-02-04T08:11:40.726Z,7.32
2023-02-04T08:12:40.934Z,7.33
2023-02-04T08:13:40.894Z,7.35
2023-02-04T08:14:40.859Z,7.29
2023-02-04T08:15:40.943Z,7.4
2023-02-04T08:16:40.814Z,7.35
2023-02-04T08:17:40.839Z,7.47
2023-02-04T08:18:40.731Z,7.45
2023-02-04T08:19:40.684Z,7.43
2023-02-04T08:20:40.657Z,7.39
2023-02-04T08:21:40.621Z,7.48
2023-02-04T08:22:40.608Z,7.4
2023-02-04T08:23:40.563Z,7.45
2023-02-04T08:24:40.527Z,7.43
2023-02-04T08:25:40.499Z,7.45
2023-02-04T08:26:40.481Z,7.45
2023-02-04T08:27:40.515Z,7.45
2023-02-04T08:28:40.411Z,7.53
2023-02-04T08:29:40.375Z,7.47
2023-02-04T08:30:40.522Z,7.48
2023-02-04T08:31:40.857Z,7.47
2023-02-04T08:32:40.044Z,7.5
2023-02-04T08:33:40.320Z,7.51
2023-02-04T08:34:40.234Z,7.51
2023-02-04T08:35:40.175Z,7.53
2023-02-04T08:36:40.152Z,7.56
2023-02-04T08:37:40.129Z,7.45
2023-02-04T08:38:40.624Z,7.48
2023-02-04T08:39:40.075Z,7.42
2023-02-04T08:40:40.043Z,7.47
2023-02-04T08:41:40.006Z,7.43
2023-02-04T08:42:39.965Z,7.42
2023-02-04T08:43:39.940Z,7.43
2023-02-04T08:44:39.660Z,7.47
2023-02-04T08:45:39.876Z,7.4
2023-02-04T08:46:40.057Z,7.51
2023-02-04T08:47:39.809Z,7.53
2023-02-04T08:48:39.801Z,7.47
2023-02-04T08:49:39.841Z,7.54
2023-02-04T08:50:41.539Z,7.58
2023-02-04T08:51:39.726Z,7.47
2023-02-04T08:52:39.674Z,7.53
2023-02-04T08:53:39.646Z,7.56
2023-02-04T08:54:39.600Z,7.69
2023-02-04T08:55:39.576Z,7.66
2023-02-04T08:56:41.867Z,7.61
2023-02-04T08:57:39.513Z,7.63
2023-02-04T08:58:39.490Z,7.58
2023-02-04T08:59:39.448Z,7.66
2023-02-04T09:00:40.113Z,7.67
2023-02-04T09:01:39.513Z,7.63
2023-02-04T09:02:39.438Z,7.61
2023-02-04T09:03:39.351Z,7.63
2023-02-04T09:04:39.303Z,7.63
2023-02-04T09:05:39.339Z,7.66
2023-02-04T09:06:39.247Z,7.76
2023-02-04T09:07:39.199Z,7.75
2023-02-04T09:08:39.194Z,7.76
2023-02-04T09:09:39.164Z,7.82
2023-02-04T09:10:39.248Z,7.83
2023-02-04T09:11:39.084Z,7.9
2023-02-04T09:12:39.064Z,7.79
2023-02-04T09:13:39.022Z,7.82
2023-02-04T09:14:38.989Z,7.91
2023-02-04T09:15:38.973Z,7.94
2023-02-04T09:16:39.183Z,7.97
2023-02-04T09:17:38.900Z,7.97
2023-02-04T09:18:38.857Z,8.01
2023-02-04T09:19:38.843Z,7.95
2023-02-04T09:20:39.207Z,7.97
2023-02-04T09:21:38.853Z,7.95
2023-02-04T09:22:38.741Z,8
2023-02-04T09:23:38.720Z,8.01
2023-02-04T09:24:38.683Z,7.97
2023-02-04T09:25:38.647Z,8.05
2023-02-04T09:26:38.629Z,8.03
2023-02-04T09:27:38.651Z,8.01
2023-02-04T09:28:38.573Z,8.06
2023-02-04T09:29:38.541Z,8.03
2023-02-04T09:30:39.105Z,8.12
2023-02-04T09:31:38.777Z,8.03
2023-02-04T09:32:38.435Z,8
2023-02-04T09:33:38.501Z,8.1
2023-02-04T09:34:38.376Z,8.03
2023-02-04T09:35:38.346Z,8.03
2023-02-04T09:36:38.309Z,8.13
2023-02-04T09:37:38.357Z,8.23
2023-02-04T09:38:38.251Z,8.18
2023-02-04T09:39:38.232Z,8.26
2023-02-04T09:40:38.644Z,8.31
2023-02-04T09:41:39.854Z,8.27
2023-02-04T09:42:38.128Z,8.41
2023-02-04T09:43:38.107Z,8.45
2023-02-04T09:44:38.074Z,8.55
2023-02-04T09:45:38.215Z,8.55
2023-02-04T09:46:38.011Z,8.66
2023-02-04T09:47:37.983Z,8.67
2023-02-04T09:48:37.972Z,8.7
2023-02-04T09:49:37.932Z,8.69
2023-02-04T09:50:38.604Z,8.73
2023-02-04T09:51:37.870Z,8.7
2023-02-04T09:52:37.828Z,8.71
2023-02-04T09:53:37.872Z,8.66
2023-02-04T09:54:37.783Z,8.82
2023-02-04T09:55:37.766Z,8.85
2023-02-04T09:56:37.705Z,8.99
2023-02-04T09:57:37.710Z,8.99
2023-02-04T09:58:37.660Z,8.97
2023-02-04T09:59:37.613Z,8.97
2023-02-04T10:00:38.028Z,9.04
2023-02-04T10:01:37.545Z,9.02
2023-02-04T10:02:37.519Z,9
2023-02-04T10:03:37.727Z,9.1
2023-02-04T10:04:37.459Z,9.08
2023-02-04T10:05:37.427Z,9.18
2023-02-04T10:06:37.407Z,9.1
2023-02-04T10:07:37.407Z,9.14
2023-02-04T10:08:37.360Z,9.18
2023-02-04T10:09:37.398Z,9.29
2023-02-04T10:10:37.735Z,9.29
2023-02-04T10:11:37.243Z,9.48
2023-02-04T10:12:37.239Z,9.55
2023-02-04T10:13:37.230Z,9.72
2023-02-04T10:14:37.155Z,9.77
2023-02-04T10:15:37.136Z,9.72
2023-02-04T10:16:37.315Z,9.72
2023-02-04T10:17:37.069Z,9.74
2023-02-04T10:18:37.051Z,9.73
2023-02-04T10:19:37.019Z,9.69
2023-02-04T10:20:37.442Z,9.69
2023-02-04T10:21:37.180Z,9.66
2023-02-04T10:22:37.030Z,9.76
2023-02-04T10:23:36.906Z,9.8
2023-02-04T10:24:36.879Z,9.72
2023-02-04T10:25:36.930Z,9.59
2023-02-04T10:26:36.822Z,9.51
2023-02-04T10:27:36.793Z,9.29
2023-02-04T10:28:36.762Z,9.41
2023-02-04T10:29:36.725Z,9.28
2023-02-04T10:30:38.079Z,9.23
2023-02-04T10:31:37.373Z,9.19
2023-02-04T10:32:36.649Z,9.21
2023-02-04T10:33:36.617Z,9.14
2023-02-04T10:34:36.584Z,9.19
2023-02-04T10:35:36.555Z,9.13
2023-02-04T10:36:36.528Z,8.99
2023-02-04T10:37:36.517Z,8.94
2023-02-04T10:38:36.469Z,8.95
2023-02-04T10:39:36.446Z,8.82
2023-02-04T10:40:37.418Z,8.76
2023-02-04T10:41:36.578Z,8.79
2023-02-04T10:42:36.386Z,8.79
2023-02-04T10:43:36.334Z,8.74
2023-02-04T10:44:36.327Z,8.82
2023-02-04T10:45:36.270Z,8.81
2023-02-04T10:46:36.279Z,8.84
2023-02-04T10:47:36.575Z,8.89
2023-02-04T10:48:36.175Z,8.84
2023-02-04T10:49:36.142Z,8.89
2023-02-04T10:50:36.871Z,8.89
2023-02-04T10:51:36.091Z,9.04
2023-02-04T10:52:36.061Z,9.02
2023-02-04T10:53:36.082Z,9.14
2023-02-04T10:54:35.991Z,9.16
2023-02-04T10:55:35.962Z,9.23
2023-02-04T10:56:35.721Z,9.18
2023-02-04T10:57:35.984Z,9.21
2023-02-04T10:58:35.885Z,9.31
2023-02-04T10:59:35.864Z,9.36
2023-02-04T11:00:36.657Z,9.47
2023-02-04T11:01:36.010Z,9.47
2023-02-04T11:02:35.756Z,9.59
2023-02-04T11:03:35.917Z,9.47
2023-02-04T11:04:35.774Z,9.59
2023-02-04T11:05:35.781Z,9.69
2023-02-04T11:06:35.644Z,9.73
2023-02-04T11:07:35.621Z,9.68
2023-02-04T11:08:35.589Z,9.8
2023-02-04T11:09:35.562Z,9.86
2023-02-04T11:10:36.739Z,9.8
2023-02-04T11:11:35.495Z,9.92
2023-02-04T11:12:35.471Z,9.99
2023-02-04T11:13:35.508Z,9.95
2023-02-04T11:14:35.412Z,9.91
2023-02-04T11:15:35.507Z,9.91
2023-02-04T11:16:35.492Z,9.92
2023-02-04T11:17:35.331Z,9.91
2023-02-04T11:18:35.310Z,9.87
2023-02-04T11:19:35.323Z,9.79
2023-02-04T11:20:36.286Z,9.82
2023-02-04T11:21:35.005Z,9.83
2023-02-04T11:22:35.234Z,9.79
2023-02-04T11:23:35.157Z,9.82
2023-02-04T11:24:35.158Z,9.8
2023-02-04T11:25:36.280Z,9.8
2023-02-04T11:26:35.095Z,9.79
2023-02-04T11:27:35.051Z,9.83
2023-02-04T11:28:35.019Z,9.92
2023-02-04T11:29:35.067Z,9.94
2023-02-04T11:30:34.873Z,9.97
2023-02-04T11:31:35.475Z,9.94
2023-02-04T11:32:34.891Z,9.97
2023-02-04T11:33:34.866Z,9.92
2023-02-04T11:34:34.865Z,9.92
2023-02-04T11:35:35.688Z,9.94
2023-02-04T11:36:34.793Z,10.12
2023-02-04T11:37:34.752Z,10.05
2023-02-04T11:38:34.727Z,9.97
2023-02-04T11:39:34.693Z,9.91
2023-02-04T11:40:34.671Z,9.95
2023-02-04T11:41:34.672Z,9.79
2023-02-04T11:42:34.611Z,9.82
2023-02-04T11:43:34.582Z,9.8
2023-02-04T11:44:34.577Z,9.66
2023-02-04T11:45:35.675Z,9.66
2023-02-04T11:46:34.692Z,9.69
2023-02-04T11:47:34.464Z,9.66
2023-02-04T11:48:34.459Z,9.69
2023-02-04T11:49:34.423Z,9.74
2023-02-04T11:50:34.377Z,9.74
2023-02-04T11:51:34.372Z,9.72
2023-02-04T11:52:34.389Z,9.76
2023-02-04T11:53:34.345Z,9.73
2023-02-04T11:54:34.276Z,9.79
2023-02-04T11:55:34.955Z,9.76
2023-02-04T11:56:34.236Z,9.73
2023-02-04T11:57:34.197Z,9.68
2023-02-04T11:58:34.314Z,9.73
2023-02-04T11:59:34.132Z,9.8
2023-02-04T12:00:34.125Z,9.76
2023-02-04T12:01:34.148Z,9.79
2023-02-04T12:02:34.174Z,9.82
2023-02-04T12:03:34.186Z,9.79
2023-02-04T12:04:33.974Z,9.87
2023-02-04T12:05:34.454Z,9.8
2023-02-04T12:06:33.937Z,9.77
2023-02-04T12:07:34.085Z,9.8
2023-02-04T12:08:33.866Z,9.79
2023-02-04T12:09:33.833Z,9.87
2023-02-04T12:10:33.823Z,9.94
2023-02-04T12:11:33.780Z,9.86
2023-02-04T12:12:33.754Z,9.98
2023-02-04T12:13:35.527Z,9.89
2023-02-04T12:14:33.712Z,9.94
2023-02-04T12:15:34.437Z,9.94
2023-02-04T12:16:33.677Z,9.97
2023-02-04T12:17:33.678Z,10.09
2023-02-04T12:18:33.604Z,9.98
2023-02-04T12:19:33.548Z,10.02
2023-02-04T12:20:33.669Z,9.98
2023-02-04T12:21:33.482Z,10.1
2023-02-04T12:22:33.467Z,10.02
2023-02-04T12:23:33.448Z,10.13
2023-02-04T12:24:33.406Z,10.1
2023-02-04T12:25:34.154Z,10.25
2023-02-04T12:26:33.353Z,10.33
2023-02-04T12:27:33.321Z,10.33
2023-02-04T12:28:33.291Z,10.16
2023-02-04T12:29:33.030Z,10.2
2023-02-04T12:30:33.274Z,10.2
2023-02-04T12:31:33.560Z,10.22
2023-02-04T12:32:33.174Z,10.25
2023-02-04T12:33:33.306Z,10.17
2023-02-04T12:34:33.114Z,10.23
2023-02-04T12:35:33.596Z,10.12
2023-02-04T12:36:33.060Z,10.05
2023-02-04T12:37:33.036Z,9.98
2023-02-04T12:38:33.012Z,10.05
2023-02-04T12:39:32.981Z,10.01
2023-02-04T12:40:32.958Z,10.12
2023-02-04T12:41:32.956Z,10.22
2023-02-04T12:42:32.921Z,10.22
2023-02-04T12:43:33.305Z,10.22
2023-02-04T12:44:32.843Z,10.22
2023-02-04T12:45:33.686Z,10.35
2023-02-04T12:46:32.881Z,10.28
2023-02-04T12:47:32.753Z,10.26
2023-02-04T12:48:32.923Z,10.3
2023-02-04T12:49:32.795Z,10.31
2023-02-04T12:50:32.662Z,10.3
2023-02-04T12:51:32.640Z,10.3
2023-02-04T12:52:32.410Z,10.34
2023-02-04T12:53:32.330Z,10.34
2023-02-04T12:54:32.541Z,10.31
2023-02-04T12:55:33.226Z,10.17
2023-02-04T12:56:32.495Z,10.19
2023-02-04T12:57:32.479Z,10.22
2023-02-04T12:58:32.424Z,10.13
2023-02-04T12:59:32.412Z,10.02
2023-02-04T13:00:32.659Z,10.09
2023-02-04T13:01:32.363Z,10.01
2023-02-04T13:02:32.330Z,10.01
2023-02-04T13:03:32.285Z,10.12
2023-02-04T13:04:32.256Z,10.15
2023-02-04T13:05:32.704Z,10.13
2023-02-04T13:06:32.205Z,10.12
2023-02-04T13:07:32.179Z,10.22
2023-02-04T13:08:32.139Z,10.16
2023-02-04T13:09:32.132Z,10.22
2023-02-04T13:10:32.084Z,10.09
2023-02-04T13:11:32.165Z,10.12
2023-02-04T13:12:32.025Z,10.19
2023-02-04T13:13:32.001Z,10.12
2023-02-04T13:14:31.979Z,10.13
2023-02-04T13:15:32.433Z,10.04
2023-02-04T13:16:32.049Z,10.1
2023-02-04T13:17:31.643Z,9.94
2023-02-04T13:18:31.865Z,9.94